createdAt,value
2022-09-04T00:00:36.519Z,17.46
2022-09-04T00:01:38.819Z,17.51
2022-09-04T00:02:36.440Z,17.42
2022-09-04T00:03:36.473Z,17.58
2022-09-04T00:04:36.451Z,17.60
2022-09-04T00:05:36.329Z,17.47
2022-09-04T00:06:36.292Z,17.43
2022-09-04T00:07:36.250Z,17.49
2022-09-04T00:08:36.212Z,17.46
2022-09-04T00:09:36.193Z,17.60
2022-09-04T00:10:36.148Z,17.62
2022-09-04T00:11:36.102Z,17.54
2022-09-04T00:12:36.062Z,17.62
2022-09-04T00:13:36.025Z,17.70
2022-09-04T00:14:35.988Z,17.66
2022-09-04T00:15:35.977Z,17.63
2022-09-04T00:16:35.958Z,17.58
2022-09-04T00:17:35.879Z,17.58
2022-09-04T00:18:35.834Z,17.63
2022-09-04T00:19:35.798Z,17.62
2022-09-04T00:20:35.761Z,17.63
2022-09-04T00:21:35.731Z,17.65
2022-09-04T00:22:35.685Z,17.65
2022-09-04T00:23:35.645Z,17.60
2022-09-04T00:24:35.607Z,17.54
2022-09-04T00:25:35.571Z,17.58
2022-09-04T00:26:35.545Z,17.62
2022-09-04T00:27:36.090Z,17.57
2022-09-04T00:28:35.457Z,17.49
2022-09-04T00:29:35.420Z,17.60
2022-09-04T00:30:35.419Z,17.58
2022-09-04T00:31:35.342Z,17.66
2022-09-04T00:32:35.315Z,17.60
2022-09-04T00:33:35.269Z,17.73
2022-09-04T00:34:35.227Z,17.65
2022-09-04T00:35:35.191Z,17.66
2022-09-04T00:36:35.152Z,17.62
2022-09-04T00:37:35.114Z,17.74
2022-09-04T00:38:35.088Z,17.62
2022-09-04T00:39:35.065Z,17.70
2022-09-04T00:40:35.000Z,17.60
2022-09-04T00:41:34.967Z,17.65
2022-09-04T00:42:34.924Z,17.70
2022-09-04T00:43:34.888Z,17.65
2022-09-04T00:44:34.860Z,17.63
2022-09-04T00:45:34.858Z,17.71
2022-09-04T00:46:34.773Z,17.65
2022-09-04T00:47:34.737Z,17.60
2022-09-04T00:48:34.712Z,17.62
2022-09-04T00:49:34.661Z,17.70
2022-09-04T00:50:34.621Z,17.49
2022-09-04T00:51:34.590Z,17.53
2022-09-04T00:52:36.272Z,17.62
2022-09-04T00:53:34.512Z,17.53
2022-09-04T00:54:34.480Z,17.54
2022-09-04T00:55:34.436Z,17.55
2022-09-04T00:56:34.394Z,17.58
2022-09-04T00:57:34.629Z,17.43
2022-09-04T00:58:34.326Z,17.51
2022-09-04T00:59:34.279Z,17.46
2022-09-04T01:00:34.578Z,17.46
2022-09-04T01:01:36.762Z,17.40
2022-09-04T01:02:34.242Z,17.40
2022-09-04T01:03:34.128Z,17.43
2022-09-04T01:04:34.096Z,17.43
2022-09-04T01:05:34.054Z,17.47
2022-09-04T01:06:34.025Z,17.46
2022-09-04T01:07:33.978Z,17.43
2022-09-04T01:08:33.951Z,17.42
2022-09-04T01:09:33.909Z,17.45
2022-09-04T01:10:33.967Z,17.47
2022-09-04T01:11:33.826Z,17.49
2022-09-04T01:12:33.791Z,17.49
2022-09-04T01:13:33.747Z,17.55
2022-09-04T01:14:33.725Z,17.54
2022-09-04T01:15:33.678Z,17.46
2022-09-04T01:16:33.811Z,17.40
2022-09-04T01:17:33.608Z,17.39
2022-09-04T01:18:33.568Z,17.39
2022-09-04T01:19:33.523Z,17.42
2022-09-04T01:20:33.491Z,17.42
2022-09-04T01:21:33.447Z,17.33
2022-09-04T01:22:33.409Z,17.38
2022-09-04T01:23:33.371Z,17.40
2022-09-04T01:24:33.334Z,17.36
2022-09-04T01:25:33.305Z,17.32
2022-09-04T01:26:33.258Z,17.43
2022-09-04T01:27:33.222Z,17.35
2022-09-04T01:28:33.179Z,17.40
2022-09-04T01:29:33.146Z,17.33
2022-09-04T01:30:33.120Z,17.36
2022-09-04T01:31:33.123Z,17.32
2022-09-04T01:32:33.029Z,17.30
2022-09-04T01:33:32.992Z,17.17
2022-09-04T01:34:32.960Z,17.24
2022-09-04T01:35:32.915Z,17.17
2022-09-04T01:36:32.888Z,17.09
2022-09-04T01:37:32.840Z,17.14
2022-09-04T01:38:32.802Z,17.17
2022-09-04T01:39:32.808Z,17.09
2022-09-04T01:40:36.023Z,17.09
2022-09-04T01:41:36.436Z,17.15
2022-09-04T01:42:32.649Z,17.06
2022-09-04T01:43:32.612Z,17.06
2022-09-04T01:44:32.575Z,17.14
2022-09-04T01:45:32.601Z,17.03
2022-09-04T01:46:32.497Z,17.06
2022-09-04T01:47:32.479Z,16.99
2022-09-04T01:48:32.441Z,17.05
2022-09-04T01:49:32.385Z,17.03
2022-09-04T01:50:32.347Z,17.07
2022-09-04T01:51:32.306Z,16.91
2022-09-04T01:52:32.270Z,16.81
2022-09-04T01:53:32.999Z,16.88
2022-09-04T01:54:32.219Z,16.81
2022-09-04T01:55:32.157Z,16.85
2022-09-04T01:56:32.117Z,16.73
2022-09-04T01:57:32.079Z,16.70
2022-09-04T01:58:32.043Z,16.69
2022-09-04T01:59:32.002Z,16.69
2022-09-04T02:00:31.977Z,16.63
2022-09-04T02:01:31.981Z,16.63
2022-09-04T02:02:31.950Z,16.62
2022-09-04T02:03:31.861Z,16.55
2022-09-04T02:04:31.815Z,16.47
2022-09-04T02:05:31.789Z,16.52
2022-09-04T02:06:31.737Z,16.52
2022-09-04T02:07:31.700Z,16.47
2022-09-04T02:08:31.660Z,16.47
2022-09-04T02:09:31.628Z,16.50
2022-09-04T02:10:31.599Z,16.36
2022-09-04T02:11:31.550Z,16.42
2022-09-04T02:12:31.512Z,16.40
2022-09-04T02:13:31.474Z,16.40
2022-09-04T02:14:31.434Z,16.41
2022-09-04T02:15:31.394Z,16.44
2022-09-04T02:16:31.429Z,16.45
2022-09-04T02:17:31.318Z,16.42
2022-09-04T02:18:31.283Z,16.50
2022-09-04T02:19:31.242Z,16.52
2022-09-04T02:20:31.205Z,16.47
2022-09-04T02:21:31.167Z,16.44
2022-09-04T02:22:31.140Z,16.44
2022-09-04T02:23:31.088Z,16.52
2022-09-04T02:24:31.050Z,16.47
2022-09-04T02:25:31.013Z,16.47
2022-09-04T02:26:30.974Z,16.42
2022-09-04T02:27:30.939Z,16.37
2022-09-04T02:28:30.921Z,16.47
2022-09-04T02:29:31.517Z,16.34
2022-09-04T02:30:30.821Z,16.27
2022-09-04T02:31:30.811Z,16.27
2022-09-04T02:32:30.744Z,16.10
2022-09-04T02:33:30.708Z,16.13
2022-09-04T02:34:30.680Z,16.14
2022-09-04T02:35:30.631Z,16.08
2022-09-04T02:36:30.589Z,16.10
2022-09-04T02:37:30.557Z,16.03
2022-09-04T02:38:30.517Z,16.04
2022-09-04T02:39:30.523Z,15.98
2022-09-04T02:40:30.439Z,16.03
2022-09-04T02:41:30.400Z,16.06
2022-09-04T02:42:30.479Z,16.10
2022-09-04T02:43:30.327Z,16.14
2022-09-04T02:44:30.288Z,16.10
2022-09-04T02:45:30.262Z,16.07
2022-09-04T02:46:30.258Z,16.13
2022-09-04T02:47:30.174Z,16.11
2022-09-04T02:48:30.134Z,16.07
2022-09-04T02:49:30.100Z,16.17
2022-09-04T02:50:30.064Z,16.11
2022-09-04T02:51:30.018Z,16.07
2022-09-04T02:52:29.996Z,16.13
2022-09-04T02:53:29.942Z,16.11
2022-09-04T02:54:29.903Z,15.96
2022-09-04T02:55:29.866Z,15.96
2022-09-04T02:56:29.830Z,15.93
2022-09-04T02:57:29.802Z,15.91
2022-09-04T02:58:29.751Z,15.98
2022-09-04T02:59:29.722Z,15.99
2022-09-04T03:00:29.707Z,16.01
2022-09-04T03:01:29.636Z,16.06
2022-09-04T03:02:29.666Z,16.16
2022-09-04T03:03:29.558Z,16.23
2022-09-04T03:04:29.521Z,16.16
2022-09-04T03:05:29.486Z,16.29
2022-09-04T03:06:29.443Z,16.32
2022-09-04T03:07:29.408Z,16.30
2022-09-04T03:08:29.376Z,16.26
2022-09-04T03:09:29.330Z,16.32
2022-09-04T03:10:29.291Z,16.27
2022-09-04T03:11:29.254Z,16.22
2022-09-04T03:12:29.212Z,16.04
2022-09-04T03:13:29.187Z,16.03
2022-09-04T03:14:29.137Z,16.10
2022-09-04T03:15:29.099Z,15.96
2022-09-04T03:16:29.130Z,16.01
2022-09-04T03:17:29.022Z,16.03
2022-09-04T03:18:29.026Z,16.06
2022-09-04T03:19:28.961Z,16.06
2022-09-04T03:20:28.908Z,16.08
2022-09-04T03:21:28.871Z,16.29
2022-09-04T03:22:28.834Z,16.23
2022-09-04T03:23:28.807Z,16.25
2022-09-04T03:24:28.758Z,16.41
2022-09-04T03:25:28.713Z,16.37
2022-09-04T03:26:28.678Z,16.42
2022-09-04T03:27:28.642Z,16.44
2022-09-04T03:28:28.601Z,16.44
2022-09-04T03:29:28.575Z,16.37
2022-09-04T03:30:28.522Z,16.34
2022-09-04T03:31:28.569Z,16.41
2022-09-04T03:32:28.446Z,16.33
2022-09-04T03:33:28.412Z,16.30
2022-09-04T03:34:28.372Z,16.26
2022-09-04T03:35:28.331Z,16.16
2022-09-04T03:36:28.297Z,16.11
2022-09-04T03:37:28.269Z,16.10
2022-09-04T03:38:28.216Z,16.14
2022-09-04T03:39:28.201Z,16.30
2022-09-04T03:40:28.140Z,16.17
2022-09-04T03:41:28.101Z,16.27
2022-09-04T03:42:28.062Z,16.26
2022-09-04T03:43:28.041Z,16.32
2022-09-04T03:44:27.985Z,16.36
2022-09-04T03:45:27.949Z,16.33
2022-09-04T03:46:27.950Z,16.25
2022-09-04T03:47:27.878Z,16.41
2022-09-04T03:48:27.832Z,16.42
2022-09-04T03:50:59.869Z,16.37
2022-09-04T03:51:59.810Z,16.37
2022-09-04T03:52:59.766Z,16.32
2022-09-04T03:53:59.725Z,16.45
2022-09-04T03:54:59.706Z,16.45
2022-09-04T03:55:59.647Z,16.45
2022-09-04T03:56:59.614Z,16.41
2022-09-04T03:57:59.573Z,16.33
2022-09-04T03:58:59.535Z,16.54
2022-09-04T03:59:59.495Z,16.50
2022-09-04T04:00:59.513Z,16.54
2022-09-04T04:01:59.414Z,16.50
2022-09-04T04:02:59.441Z,16.57
2022-09-04T04:03:59.339Z,16.41
2022-09-04T04:04:59.302Z,16.33
2022-09-04T04:05:59.277Z,16.42
2022-09-04T04:06:59.225Z,16.42
2022-09-04T04:07:59.231Z,16.40
2022-09-04T04:08:59.147Z,16.40
2022-09-04T04:09:59.108Z,16.30
2022-09-04T04:10:59.073Z,16.44
2022-09-04T04:11:59.045Z,16.37
2022-09-04T04:12:58.994Z,16.33
2022-09-04T04:13:58.954Z,16.36
2022-09-04T04:14:58.921Z,16.22
2022-09-04T04:15:58.907Z,16.25
2022-09-04T04:16:58.850Z,16.18
2022-09-04T04:17:58.807Z,16.30
2022-09-04T04:18:58.763Z,16.18
2022-09-04T04:19:58.725Z,16.27
2022-09-04T04:20:58.688Z,16.34
2022-09-04T04:21:58.648Z,16.33
2022-09-04T04:22:58.622Z,16.34
2022-09-04T04:23:58.573Z,16.41
2022-09-04T04:24:58.534Z,16.29
2022-09-04T04:25:58.500Z,16.34
2022-09-04T04:26:58.457Z,16.47
2022-09-04T04:27:58.418Z,16.36
2022-09-04T04:28:58.393Z,16.42
2022-09-04T04:29:58.343Z,16.44
2022-09-04T04:30:58.335Z,16.37
2022-09-04T04:31:58.270Z,16.36
2022-09-04T04:32:58.227Z,16.37
2022-09-04T04:33:58.201Z,16.47
2022-09-04T04:34:58.177Z,16.37
2022-09-04T04:35:58.113Z,16.37
2022-09-04T04:36:58.076Z,16.33
2022-09-04T04:37:58.035Z,16.36
2022-09-04T04:38:58.112Z,16.41
2022-09-04T04:39:58.023Z,16.42
2022-09-04T04:40:57.934Z,16.30
2022-09-04T04:41:57.881Z,16.42
2022-09-04T04:42:57.847Z,16.33
2022-09-04T04:43:57.807Z,16.30
2022-09-04T04:44:57.772Z,16.41
2022-09-04T04:45:57.728Z,16.36
2022-09-04T04:46:57.746Z,16.32
2022-09-04T04:47:57.653Z,16.30
2022-09-04T04:48:57.617Z,16.41
2022-09-04T04:49:57.588Z,16.41
2022-09-04T04:50:57.544Z,16.47
2022-09-04T04:51:57.499Z,16.33
2022-09-04T04:52:57.460Z,16.45
2022-09-04T04:53:57.422Z,16.44
2022-09-04T04:54:57.385Z,16.40
2022-09-04T04:55:57.378Z,16.44
2022-09-04T04:56:57.306Z,16.42
2022-09-04T04:57:57.274Z,16.44
2022-09-04T04:58:57.233Z,16.50
2022-09-04T04:59:57.200Z,16.50
2022-09-04T05:00:57.154Z,16.51
2022-09-04T05:01:57.250Z,16.52
2022-09-04T05:02:57.112Z,16.54
2022-09-04T05:03:57.037Z,16.57
2022-09-04T05:04:57.002Z,16.55
2022-09-04T05:05:56.963Z,16.52
2022-09-04T05:06:56.924Z,16.47
2022-09-04T05:07:56.899Z,16.60
2022-09-04T05:08:56.870Z,16.60
2022-09-04T05:09:56.813Z,16.60
2022-09-04T05:10:56.770Z,16.65
2022-09-04T05:11:56.736Z,16.66
2022-09-04T05:12:56.697Z,16.70
2022-09-04T05:13:56.664Z,16.73
2022-09-04T05:14:56.617Z,16.77
2022-09-04T05:16:08.987Z,16.72
2022-09-04T05:16:56.633Z,16.72
2022-09-04T05:17:56.526Z,16.84
2022-09-04T05:18:56.475Z,16.78
2022-09-04T05:19:56.429Z,17.03
2022-09-04T05:20:56.387Z,16.85
2022-09-04T05:21:56.354Z,16.92
2022-09-04T05:22:56.311Z,16.85
2022-09-04T05:23:56.293Z,17.06
2022-09-04T05:24:56.261Z,17.00
2022-09-04T05:25:56.242Z,16.95
2022-09-04T05:26:56.165Z,16.96
2022-09-04T05:27:56.136Z,17.05
2022-09-04T05:28:56.082Z,17.10
2022-09-04T05:29:56.051Z,17.14
2022-09-04T05:30:56.057Z,17.20
2022-09-04T05:31:55.976Z,17.20
2022-09-04T05:32:55.938Z,17.30
2022-09-04T05:33:55.893Z,17.30
2022-09-04T05:34:55.865Z,17.35
2022-09-04T05:35:55.820Z,17.38
2022-09-04T05:36:55.833Z,17.43
2022-09-04T05:37:55.741Z,17.53
2022-09-04T05:38:55.702Z,17.40
2022-09-04T05:39:55.717Z,17.51
2022-09-04T05:40:55.630Z,17.58
2022-09-04T05:41:55.619Z,17.51
2022-09-04T05:42:55.567Z,17.53
2022-09-04T05:43:55.515Z,17.65
2022-09-04T05:44:55.472Z,17.68
2022-09-04T05:45:55.438Z,17.74
2022-09-04T05:46:55.403Z,17.86
2022-09-04T05:47:55.365Z,17.71
2022-09-04T05:48:55.333Z,17.65
2022-09-04T05:49:55.287Z,17.77
2022-09-04T05:50:55.248Z,17.76
2022-09-04T05:51:55.212Z,17.83
2022-09-04T05:52:55.184Z,18.17
2022-09-04T05:53:59.114Z,18.75
2022-09-04T05:54:55.111Z,19.62
2022-09-04T05:55:55.069Z,20.20
2022-09-04T05:56:55.023Z,20.97
2022-09-04T05:57:54.983Z,21.58
2022-09-04T05:58:54.947Z,21.79
2022-09-04T05:59:54.911Z,22.11
2022-09-04T06:00:54.883Z,22.56
2022-09-04T06:01:54.878Z,22.88
2022-09-04T06:02:54.866Z,23.47
2022-09-04T06:03:54.765Z,23.97
2022-09-04T06:04:54.722Z,24.24
2022-09-04T06:05:54.685Z,24.09
2022-09-04T06:06:54.668Z,23.77
2022-09-04T06:07:54.636Z,23.71
2022-09-04T06:08:54.576Z,23.50
2022-09-04T06:09:54.539Z,23.35
2022-09-04T06:10:54.507Z,23.53
2022-09-04T06:11:54.467Z,23.78
2022-09-04T06:12:54.431Z,23.92
2022-09-04T06:13:54.409Z,24.18
2022-09-04T06:14:54.362Z,24.41
2022-09-04T06:15:54.367Z,24.45
2022-09-04T06:16:54.287Z,24.59
2022-09-04T06:17:54.252Z,24.87
2022-09-04T06:18:54.219Z,24.77
2022-09-04T06:19:54.183Z,25.26
2022-09-04T06:20:54.144Z,25.61
2022-09-04T06:21:54.126Z,26.03
2022-09-04T06:22:55.795Z,26.28
2022-09-04T06:23:54.042Z,26.66
2022-09-04T06:24:54.002Z,26.76
2022-09-04T06:25:54.001Z,27.09
2022-09-04T06:26:53.974Z,27.25
2022-09-04T06:27:53.911Z,27.03
2022-09-04T06:28:53.865Z,26.84
2022-09-04T06:29:53.830Z,25.85
2022-09-04T06:30:53.816Z,25.57
2022-09-04T06:31:53.760Z,25.76
2022-09-04T06:32:53.736Z,26.29
2022-09-04T06:33:53.691Z,25.75
2022-09-04T06:34:53.655Z,25.69
2022-09-04T06:35:53.622Z,25.66
2022-09-04T06:36:53.587Z,24.86
2022-09-04T06:37:53.554Z,25.07
2022-09-04T06:38:53.529Z,25.56
2022-09-04T06:39:53.573Z,25.71
2022-09-04T06:40:53.448Z,25.57
2022-09-04T06:41:53.419Z,25.69
2022-09-04T06:42:53.381Z,26.00
2022-09-04T06:43:54.353Z,25.91
2022-09-04T06:44:53.311Z,25.29
2022-09-04T06:45:53.281Z,25.07
2022-09-04T06:46:53.293Z,24.98
2022-09-04T06:47:53.211Z,24.39
2022-09-04T06:48:53.182Z,23.96
2022-09-04T06:49:53.155Z,23.49
2022-09-04T06:50:53.105Z,23.50
2022-09-04T06:51:53.073Z,24.05
2022-09-04T06:52:53.038Z,24.74
2022-09-04T06:53:53.007Z,25.48
2022-09-04T06:54:52.978Z,26.08
2022-09-04T06:55:52.936Z,26.69
2022-09-04T06:56:52.901Z,27.02
2022-09-04T06:57:52.867Z,26.59
2022-09-04T06:58:52.831Z,25.86
2022-09-04T06:59:52.800Z,25.75
2022-09-04T07:00:52.775Z,25.90
2022-09-04T07:01:52.902Z,25.60
2022-09-04T07:02:52.723Z,25.38
2022-09-04T07:03:52.666Z,25.71
2022-09-04T07:04:52.623Z,25.94
2022-09-04T07:05:52.592Z,26.29
2022-09-04T07:06:52.572Z,26.32
2022-09-04T07:07:52.546Z,26.84
2022-09-04T07:08:52.488Z,27.13
2022-09-04T07:09:52.456Z,27.20
2022-09-04T07:10:52.436Z,27.34
2022-09-04T07:11:52.388Z,27.74
2022-09-04T07:12:52.353Z,27.65
2022-09-04T07:13:52.331Z,27.93
2022-09-04T07:14:52.287Z,27.72
2022-09-04T07:15:52.274Z,26.60
2022-09-04T07:16:52.237Z,26.06
2022-09-04T07:17:52.188Z,26.06
2022-09-04T07:18:52.153Z,26.21
2022-09-04T07:19:52.122Z,26.69
2022-09-04T07:20:52.086Z,26.53
2022-09-04T07:21:52.057Z,26.11
2022-09-04T07:22:52.032Z,26.20
2022-09-04T07:23:51.989Z,26.35
2022-09-04T07:24:51.955Z,26.75
2022-09-04T07:25:51.922Z,26.75
2022-09-04T07:26:51.899Z,25.93
2022-09-04T07:27:51.856Z,25.39
2022-09-04T07:28:51.828Z,25.22
2022-09-04T07:29:51.789Z,25.71
2022-09-04T07:30:51.758Z,25.93
2022-09-04T07:31:51.778Z,25.66
2022-09-04T07:32:51.690Z,25.83
2022-09-04T07:33:51.677Z,26.32
2022-09-04T07:34:51.637Z,26.69
2022-09-04T07:35:51.622Z,26.88
2022-09-04T07:36:51.559Z,26.98
2022-09-04T07:37:52.485Z,26.81
2022-09-04T07:38:51.703Z,26.53
2022-09-04T07:39:51.567Z,26.68
2022-09-04T07:40:51.439Z,27.09
2022-09-04T07:41:51.396Z,27.49
2022-09-04T07:42:51.364Z,26.87
2022-09-04T07:43:54.628Z,25.96
2022-09-04T07:44:51.306Z,25.90
2022-09-04T07:45:51.516Z,25.74
2022-09-04T07:46:51.243Z,25.61
2022-09-04T07:47:51.202Z,25.41
2022-09-04T07:48:52.062Z,25.29
2022-09-04T07:49:51.139Z,25.12
2022-09-04T07:50:51.107Z,24.89
2022-09-04T07:51:51.071Z,24.99
2022-09-04T07:52:51.049Z,25.49
2022-09-04T07:53:51.010Z,26.03
2022-09-04T07:54:50.974Z,26.54
2022-09-04T07:55:50.944Z,26.54
2022-09-04T07:56:50.904Z,26.49
2022-09-04T07:57:50.883Z,26.47
2022-09-04T07:58:50.854Z,26.12
2022-09-04T07:59:50.845Z,26.61
2022-09-04T08:00:50.818Z,27.08
2022-09-04T08:01:50.772Z,27.76
2022-09-04T08:02:50.728Z,28.39
2022-09-04T08:03:53.882Z,28.72
2022-09-04T08:04:50.725Z,28.98
2022-09-04T08:05:50.619Z,29.11
2022-09-04T08:06:50.588Z,28.43
2022-09-04T08:07:50.557Z,28.58
2022-09-04T08:08:50.538Z,28.60
2022-09-04T08:09:50.492Z,28.72
2022-09-04T08:10:50.461Z,29.00
2022-09-04T08:11:50.433Z,29.25
2022-09-04T08:12:50.876Z,29.55
2022-09-04T08:13:52.096Z,29.82
2022-09-04T08:14:50.335Z,29.63
2022-09-04T08:15:50.325Z,28.32
2022-09-04T08:16:50.270Z,27.78
2022-09-04T08:17:50.239Z,27.68
2022-09-04T08:18:50.209Z,27.23
2022-09-04T08:19:50.190Z,26.76
2022-09-04T08:20:50.144Z,27.01
2022-09-04T08:21:50.118Z,27.49
2022-09-04T08:22:50.084Z,28.11
2022-09-04T08:23:50.053Z,28.55
2022-09-04T08:24:50.020Z,28.91
2022-09-04T08:25:50.000Z,29.48
2022-09-04T08:26:49.958Z,29.76
2022-09-04T08:27:49.933Z,29.88
2022-09-04T08:28:49.896Z,29.94
2022-09-04T08:29:49.931Z,30.13
2022-09-04T08:30:49.861Z,30.04
2022-09-04T08:31:49.817Z,29.37
2022-09-04T08:32:49.775Z,28.57
2022-09-04T08:33:49.751Z,28.03
2022-09-04T08:34:49.711Z,26.97
2022-09-04T08:35:49.683Z,26.41
2022-09-04T08:36:49.660Z,26.71
2022-09-04T08:37:49.618Z,26.71
2022-09-04T08:38:49.605Z,26.44
2022-09-04T08:39:49.624Z,26.78
2022-09-04T08:40:52.137Z,26.44
2022-09-04T08:41:49.507Z,26.46
2022-09-04T08:42:49.487Z,26.71
2022-09-04T08:43:49.434Z,26.78
2022-09-04T08:44:49.400Z,26.93
2022-09-04T08:45:49.390Z,26.65
2022-09-04T08:46:49.624Z,26.86
2022-09-04T08:47:49.323Z,27.23
2022-09-04T08:48:49.288Z,27.80
2022-09-04T08:49:49.247Z,27.88
2022-09-04T08:50:49.222Z,27.11
2022-09-04T08:51:49.215Z,27.01
2022-09-04T08:52:49.151Z,27.18
2022-09-04T08:53:49.143Z,27.30
2022-09-04T08:54:49.092Z,27.88
2022-09-04T08:55:49.061Z,28.23
2022-09-04T08:56:49.030Z,28.50
2022-09-04T08:57:48.998Z,28.57
2022-09-04T08:58:48.974Z,28.21
2022-09-04T08:59:48.958Z,27.76
2022-09-04T09:00:48.977Z,27.88
2022-09-04T09:01:48.902Z,27.62
2022-09-04T09:02:48.880Z,27.63
2022-09-04T09:03:48.815Z,27.93
2022-09-04T09:04:48.844Z,28.02
2022-09-04T09:05:48.766Z,27.99
2022-09-04T09:06:48.723Z,28.24
2022-09-04T09:07:48.694Z,28.15
2022-09-04T09:08:48.662Z,28.45
2022-09-04T09:09:48.633Z,28.43
2022-09-04T09:10:48.600Z,28.45
2022-09-04T09:11:48.583Z,28.33
2022-09-04T09:12:48.543Z,27.78
2022-09-04T09:13:48.539Z,27.66
2022-09-04T09:14:48.479Z,27.95
2022-09-04T09:15:48.450Z,27.91
2022-09-04T09:16:48.502Z,27.81
2022-09-04T09:17:48.392Z,27.98
2022-09-04T09:18:48.359Z,28.30
2022-09-04T09:19:48.338Z,28.55
2022-09-04T09:20:49.099Z,28.64
2022-09-04T09:21:48.269Z,28.74
2022-09-04T09:22:48.238Z,28.94
2022-09-04T09:23:48.207Z,28.92
2022-09-04T09:24:48.181Z,29.21
2022-09-04T09:25:48.168Z,29.37
2022-09-04T09:26:48.120Z,29.79
2022-09-04T09:27:48.090Z,30.36
2022-09-04T09:28:48.542Z,30.26
2022-09-04T09:29:48.028Z,29.48
2022-09-04T09:30:48.041Z,29.23
2022-09-04T09:31:47.985Z,29.67
2022-09-04T09:32:47.940Z,29.99
2022-09-04T09:33:47.911Z,30.23
2022-09-04T09:34:47.897Z,29.51
2022-09-04T09:35:47.852Z,29.41
2022-09-04T09:36:47.831Z,29.74
2022-09-04T09:37:47.820Z,29.85
2022-09-04T09:38:47.761Z,29.79
2022-09-04T09:39:47.774Z,29.36
2022-09-04T09:40:47.705Z,29.17
2022-09-04T09:41:47.676Z,29.62
2022-09-04T09:42:47.646Z,30.18
2022-09-04T09:43:47.626Z,30.03
2022-09-04T09:44:47.589Z,29.58
2022-09-04T09:45:47.615Z,29.23
2022-09-04T09:46:47.528Z,29.14
2022-09-04T09:47:47.499Z,28.57
2022-09-04T09:48:47.470Z,28.42
2022-09-04T09:49:47.454Z,28.42
2022-09-04T09:50:56.652Z,28.61
2022-09-04T09:51:47.385Z,28.97
2022-09-04T09:52:47.355Z,28.73
2022-09-04T09:53:47.689Z,28.92
2022-09-04T09:54:47.294Z,29.21
2022-09-04T09:55:47.278Z,29.05
2022-09-04T09:56:53.817Z,28.54
2022-09-04T09:57:47.208Z,28.52
2022-09-04T09:58:47.190Z,28.60
2022-09-04T09:59:47.150Z,28.69
2022-09-04T10:00:47.177Z,28.94
2022-09-04T10:01:47.091Z,29.30
2022-09-04T10:02:47.125Z,29.10
2022-09-04T10:03:47.036Z,28.51
2022-09-04T10:04:47.008Z,28.52
2022-09-04T10:05:46.975Z,28.64
2022-09-04T10:06:46.963Z,28.88
2022-09-04T10:07:46.919Z,29.21
2022-09-04T10:08:46.901Z,29.21
2022-09-04T10:09:46.860Z,29.29
2022-09-04T10:10:46.832Z,29.20
2022-09-04T10:11:46.806Z,29.26
2022-09-04T10:12:46.776Z,29.33
2022-09-04T10:13:46.744Z,29.12
2022-09-04T10:14:46.768Z,28.91
2022-09-04T10:15:46.686Z,28.88
2022-09-04T10:16:46.719Z,28.97
2022-09-04T10:17:46.629Z,29.20
2022-09-04T10:18:46.606Z,29.29
2022-09-04T10:19:46.573Z,29.21
2022-09-04T10:20:46.555Z,29.63
2022-09-04T10:21:46.527Z,29.76
2022-09-04T10:22:46.484Z,29.82
2022-09-04T10:23:46.478Z,29.58
2022-09-04T10:24:46.427Z,29.64
2022-09-04T10:25:46.399Z,29.49
2022-09-04T10:26:46.382Z,29.79
2022-09-04T10:27:46.355Z,29.58
2022-09-04T10:28:46.313Z,29.54
2022-09-04T10:29:46.285Z,29.86
2022-09-04T10:30:46.292Z,29.86
2022-09-04T10:31:46.230Z,29.71
2022-09-04T10:32:46.201Z,29.66
2022-09-04T10:33:46.180Z,30.10
2022-09-04T10:34:46.143Z,30.57
2022-09-04T10:35:46.115Z,30.03
2022-09-04T10:36:46.087Z,29.89
2022-09-04T10:37:46.060Z,29.88
2022-09-04T10:38:46.030Z,29.64
2022-09-04T10:39:46.043Z,29.92
2022-09-04T10:40:49.304Z,29.97
2022-09-04T10:41:45.942Z,29.99
2022-09-04T10:42:45.917Z,30.21
2022-09-04T10:43:45.887Z,29.94
2022-09-04T10:44:45.859Z,30.10
2022-09-04T10:45:45.912Z,30.16
2022-09-04T10:46:45.802Z,30.30
2022-09-04T10:47:45.773Z,30.32
2022-09-04T10:48:45.746Z,30.22
2022-09-04T10:49:45.716Z,30.56
2022-09-04T10:50:45.692Z,30.59
2022-09-04T10:51:45.672Z,30.85
2022-09-04T10:52:45.633Z,30.64
2022-09-04T10:53:45.605Z,30.79
2022-09-04T10:54:45.578Z,30.25
2022-09-04T10:55:45.548Z,29.45
2022-09-04T10:56:45.531Z,29.29
2022-09-04T10:57:45.495Z,28.97
2022-09-04T10:58:45.467Z,28.95
2022-09-04T10:59:45.438Z,28.98
2022-09-04T11:00:45.428Z,29.02
2022-09-04T11:01:45.381Z,29.03
2022-09-04T11:02:45.491Z,29.12
2022-09-04T11:03:45.324Z,29.26
2022-09-04T11:04:45.297Z,29.41
2022-09-04T11:05:45.269Z,29.55
2022-09-04T11:06:45.241Z,29.79
2022-09-04T11:07:45.213Z,29.51
2022-09-04T11:08:45.196Z,29.10
2022-09-04T11:09:45.155Z,28.89
2022-09-04T11:10:45.132Z,29.00
2022-09-04T11:11:45.099Z,28.83
2022-09-04T11:12:45.072Z,28.57
2022-09-04T11:13:49.291Z,28.32
2022-09-04T11:14:45.025Z,28.52
2022-09-04T11:15:44.998Z,28.64
2022-09-04T11:16:45.002Z,28.60
2022-09-04T11:17:44.938Z,28.88
2022-09-04T11:18:44.915Z,29.08
2022-09-04T11:19:47.642Z,28.91
2022-09-04T11:20:44.852Z,28.89
2022-09-04T11:21:44.809Z,29.21
2022-09-04T11:22:44.783Z,29.35
2022-09-04T11:23:44.746Z,29.03
2022-09-04T11:24:44.724Z,28.85
2022-09-04T11:25:44.698Z,28.72
2022-09-04T11:26:44.780Z,28.38
2022-09-04T11:27:45.323Z,28.17
2022-09-04T11:28:44.600Z,28.01
2022-09-04T11:29:44.569Z,27.84
2022-09-04T11:30:48.123Z,27.76
2022-09-04T11:31:44.577Z,27.63
2022-09-04T11:32:44.513Z,27.52
2022-09-04T11:33:44.447Z,27.58
2022-09-04T11:34:44.417Z,27.53
2022-09-04T11:35:44.390Z,27.59
2022-09-04T11:36:44.354Z,27.42
2022-09-04T11:37:44.323Z,27.33
2022-09-04T11:38:44.308Z,27.43
2022-09-04T11:39:44.298Z,27.46
2022-09-04T11:40:44.230Z,27.48
2022-09-04T11:41:44.199Z,27.58
2022-09-04T11:42:44.165Z,27.58
2022-09-04T11:43:44.137Z,27.48
2022-09-04T11:44:44.112Z,27.42
2022-09-04T11:45:44.124Z,27.43
2022-09-04T11:46:44.039Z,27.53
2022-09-04T11:47:44.011Z,27.55
2022-09-04T11:48:43.976Z,27.87
2022-09-04T11:49:43.942Z,27.90
2022-09-04T11:50:43.922Z,27.84
2022-09-04T11:51:43.877Z,27.90
2022-09-04T11:52:43.845Z,28.01
2022-09-04T11:53:43.815Z,28.24
2022-09-04T11:54:43.782Z,28.36
2022-09-04T11:55:43.761Z,28.83
2022-09-04T11:56:43.719Z,28.95
2022-09-04T11:57:43.697Z,28.87
2022-09-04T11:58:43.659Z,29.14
2022-09-04T11:59:43.625Z,29.30
2022-09-04T12:00:43.592Z,29.58
2022-09-04T12:01:47.685Z,29.69
2022-09-04T12:02:43.532Z,29.74
2022-09-04T12:03:43.569Z,29.63
2022-09-04T12:04:43.492Z,29.84
2022-09-04T12:05:43.440Z,30.11
2022-09-04T12:06:43.409Z,30.21
2022-09-04T12:07:43.607Z,30.19
2022-09-04T12:08:43.351Z,29.81
2022-09-04T12:09:43.317Z,29.88
2022-09-04T12:10:43.303Z,29.91
2022-09-04T12:11:43.262Z,30.25
2022-09-04T12:12:43.228Z,30.08
2022-09-04T12:13:43.202Z,30.04
2022-09-04T12:14:43.202Z,29.88
2022-09-04T12:15:43.147Z,29.67
2022-09-04T12:16:44.611Z,29.48
2022-09-04T12:17:43.090Z,29.35
2022-09-04T12:18:43.060Z,29.14
2022-09-04T12:19:43.022Z,29.35
2022-09-04T12:20:43.007Z,29.27
2022-09-04T12:21:42.965Z,28.91
2022-09-04T12:22:42.936Z,28.87
2022-09-04T12:23:42.909Z,29.14
2022-09-04T12:24:42.882Z,29.27
2022-09-04T12:25:42.861Z,29.42
2022-09-04T12:26:51.513Z,29.39
2022-09-04T12:27:42.786Z,29.20
2022-09-04T12:28:42.756Z,29.32
2022-09-04T12:29:42.732Z,29.20
2022-09-04T12:30:42.699Z,29.00
2022-09-04T12:31:42.749Z,28.82
2022-09-04T12:32:42.659Z,28.61
2022-09-04T12:33:42.606Z,28.48
2022-09-04T12:34:42.578Z,28.33
2022-09-04T12:35:42.550Z,28.36
2022-09-04T12:36:42.517Z,28.38
2022-09-04T12:37:42.498Z,28.38
2022-09-04T12:38:42.471Z,28.42
2022-09-04T12:39:42.468Z,28.36
2022-09-04T12:40:42.397Z,28.18
2022-09-04T12:41:44.071Z,27.99
2022-09-04T12:42:42.337Z,27.90
2022-09-04T12:43:42.314Z,28.11
2022-09-04T12:44:42.271Z,28.08
2022-09-04T12:45:42.311Z,28.24
2022-09-04T12:46:42.209Z,28.38
2022-09-04T12:47:42.176Z,28.51
2022-09-04T12:48:42.144Z,28.65
2022-09-04T12:49:42.123Z,28.65
2022-09-04T12:50:42.080Z,28.73
2022-09-04T12:51:42.052Z,28.82
2022-09-04T12:52:42.025Z,28.92
2022-09-04T12:53:41.987Z,29.08